sensor_id;sensor_type;location;lat;lon;timestamp;P1;durP1;ratioP1;P2;durP2;ratioP2
19301;SDS011;9785;59.362;12.152;2023-06-19T00:01:58;6.10;;;5.63;;
19301;SDS011;9785;59.362;12.152;2023-06-19T00:04:27;6.23;;;5.73;;
19301;SDS011;9785;59.362;12.152;2023-06-19T00:06:56;5.97;;;5.57;;
19301;SDS011;9785;59.362;12.152;2023-06-19T00:09:25;6.10;;;5.60;;
19301;SDS011;9785;59.362;12.152;2023-06-19T00:11:55;6.90;;;5.00;;
19301;SDS011;9785;59.362;12.152;2023-06-19T00:14:24;4.83;;;4.53;;
19301;SDS011;9785;59.362;12.152;2023-06-19T00:16:52;5.97;;;4.80;;
19301;SDS011;9785;59.362;12.152;2023-06-19T00:19:21;4.20;;;3.90;;
19301;SDS011;9785;59.362;12.152;2023-06-19T00:21:50;4.50;;;4.20;;
19301;SDS011;9785;59.362;12.152;2023-06-19T00:24:23;3.90;;;3.70;;
19301;SDS011;9785;59.362;12.152;2023-06-19T00:26:52;5.73;;;5.20;;
19301;SDS011;9785;59.362;12.152;2023-06-19T00:29:22;3.80;;;3.60;;
19301;SDS011;9785;59.362;12.152;2023-06-19T00:31:54;4.30;;;4.10;;
19301;SDS011;9785;59.362;12.152;2023-06-19T00:34:23;5.17;;;4.77;;
19301;SDS011;9785;59.362;12.152;2023-06-19T00:36:52;4.70;;;4.33;;
19301;SDS011;9785;59.362;12.152;2023-06-19T00:39:23;3.83;;;3.63;;
19301;SDS011;9785;59.362;12.152;2023-06-19T00:41:51;4.07;;;3.67;;
19301;SDS011;9785;59.362;12.152;2023-06-19T00:44:22;3.97;;;3.70;;
19301;SDS011;9785;59.362;12.152;2023-06-19T00:46:51;3.47;;;3.27;;
19301;SDS011;9785;59.362;12.152;2023-06-19T00:49:25;4.57;;;3.50;;
19301;SDS011;9785;59.362;12.152;2023-06-19T00:51:54;4.17;;;3.87;;
19301;SDS011;9785;59.362;12.152;2023-06-19T00:54:23;4.30;;;3.90;;
19301;SDS011;9785;59.362;12.152;2023-06-19T00:56:52;4.17;;;3.93;;
19301;SDS011;9785;59.362;12.152;2023-06-19T00:59:22;4.47;;;4.07;;
19301;SDS011;9785;59.362;12.152;2023-06-19T01:01:52;4.80;;;4.50;;
19301;SDS011;9785;59.362;12.152;2023-06-19T01:04:20;4.07;;;3.77;;
19301;SDS011;9785;59.362;12.152;2023-06-19T01:06:50;4.83;;;4.47;;
19301;SDS011;9785;59.362;12.152;2023-06-19T01:09:25;5.03;;;4.63;;
19301;SDS011;9785;59.362;12.152;2023-06-19T01:11:57;6.10;;;5.07;;
19301;SDS011;9785;59.362;12.152;2023-06-19T01:14:30;6.63;;;5.33;;
19301;SDS011;9785;59.362;12.152;2023-06-19T01:17:02;6.67;;;5.70;;
19301;SDS011;9785;59.362;12.152;2023-06-19T01:19:31;7.00;;;6.30;;
19301;SDS011;9785;59.362;12.152;2023-06-19T01:22:02;6.87;;;6.27;;
19301;SDS011;9785;59.362;12.152;2023-06-19T01:24:31;7.03;;;6.20;;
19301;SDS011;9785;59.362;12.152;2023-06-19T01:27:00;6.93;;;6.23;;
19301;SDS011;9785;59.362;12.152;2023-06-19T01:29:29;7.60;;;6.77;;
19301;SDS011;9785;59.362;12.152;2023-06-19T01:31:59;7.47;;;6.70;;
19301;SDS011;9785;59.362;12.152;2023-06-19T01:34:28;7.90;;;6.90;;
19301;SDS011;9785;59.362;12.152;2023-06-19T01:36:57;8.90;;;7.60;;
19301;SDS011;9785;59.362;12.152;2023-06-19T01:39:28;8.90;;;7.50;;
19301;SDS011;9785;59.362;12.152;2023-06-19T01:41:57;8.07;;;7.27;;
19301;SDS011;9785;59.362;12.152;2023-06-19T01:44:26;9.03;;;7.03;;
19301;SDS011;9785;59.362;12.152;2023-06-19T01:46:54;8.53;;;7.67;;
19301;SDS011;9785;59.362;12.152;2023-06-19T01:49:23;8.80;;;7.93;;
19301;SDS011;9785;59.362;12.152;2023-06-19T01:51:52;9.67;;;8.77;;
19301;SDS011;9785;59.362;12.152;2023-06-19T01:54:22;9.53;;;8.57;;
19301;SDS011;9785;59.362;12.152;2023-06-19T01:56:52;10.10;;;9.00;;
19301;SDS011;9785;59.362;12.152;2023-06-19T01:59:20;13.23;;;9.20;;
19301;SDS011;9785;59.362;12.152;2023-06-19T02:01:49;10.20;;;9.10;;
19301;SDS011;9785;59.362;12.152;2023-06-19T02:04:18;9.57;;;8.67;;
19301;SDS011;9785;59.362;12.152;2023-06-19T02:06:46;10.97;;;8.77;;
19301;SDS011;9785;59.362;12.152;2023-06-19T02:09:15;10.27;;;9.27;;
19301;SDS011;9785;59.362;12.152;2023-06-19T02:11:44;10.43;;;9.33;;
19301;SDS011;9785;59.362;12.152;2023-06-19T02:14:14;10.90;;;9.80;;
19301;SDS011;9785;59.362;12.152;2023-06-19T02:16:42;12.90;;;10.77;;
19301;SDS011;9785;59.362;12.152;2023-06-19T02:19:11;12.87;;;10.50;;
19301;SDS011;9785;59.362;12.152;2023-06-19T02:21:40;13.23;;;10.53;;
19301;SDS011;9785;59.362;12.152;2023-06-19T02:24:08;11.67;;;10.47;;
19301;SDS011;9785;59.362;12.152;2023-06-19T02:26:37;12.00;;;10.73;;
19301;SDS011;9785;59.362;12.152;2023-06-19T02:29:05;12.90;;;11.50;;
19301;SDS011;9785;59.362;12.152;2023-06-19T02:31:35;12.57;;;11.27;;
19301;SDS011;9785;59.362;12.152;2023-06-19T02:34:04;12.87;;;11.40;;
19301;SDS011;9785;59.362;12.152;2023-06-19T02:36:33;12.17;;;10.87;;
19301;SDS011;9785;59.362;12.152;2023-06-19T02:39:03;13.00;;;11.60;;
19301;SDS011;9785;59.362;12.152;2023-06-19T02:41:32;13.33;;;10.77;;
19301;SDS011;9785;59.362;12.152;2023-06-19T02:44:01;13.07;;;11.67;;
19301;SDS011;9785;59.362;12.152;2023-06-19T02:46:29;18.97;;;12.00;;
19301;SDS011;9785;59.362;12.152;2023-06-19T02:49:00;12.90;;;10.77;;
19301;SDS011;9785;59.362;12.152;2023-06-19T02:51:28;13.60;;;10.90;;
19301;SDS011;9785;59.362;12.152;2023-06-19T02:53:57;14.70;;;11.60;;
19301;SDS011;9785;59.362;12.152;2023-06-19T02:56:26;13.20;;;11.50;;
19301;SDS011;9785;59.362;12.152;2023-06-19T02:58:55;13.40;;;11.63;;
19301;SDS011;9785;59.362;12.152;2023-06-19T03:01:24;14.43;;;12.20;;
19301;SDS011;9785;59.362;12.152;2023-06-19T03:03:53;13.40;;;11.30;;
19301;SDS011;9785;59.362;12.152;2023-06-19T03:06:23;17.93;;;12.27;;
19301;SDS011;9785;59.362;12.152;2023-06-19T03:08:52;14.60;;;12.40;;
19301;SDS011;9785;59.362;12.152;2023-06-19T03:11:21;13.63;;;12.17;;
19301;SDS011;9785;59.362;12.152;2023-06-19T03:13:49;14.07;;;12.60;;
19301;SDS011;9785;59.362;12.152;2023-06-19T03:16:18;15.20;;;12.47;;
19301;SDS011;9785;59.362;12.152;2023-06-19T03:18:47;17.50;;;12.23;;
19301;SDS011;9785;59.362;12.152;2023-06-19T03:21:18;19.73;;;12.67;;
19301;SDS011;9785;59.362;12.152;2023-06-19T03:23:49;17.00;;;12.33;;
19301;SDS011;9785;59.362;12.152;2023-06-19T03:26:18;15.80;;;12.80;;
19301;SDS011;9785;59.362;12.152;2023-06-19T03:28:47;14.70;;;12.83;;
19301;SDS011;9785;59.362;12.152;2023-06-19T03:31:15;17.03;;;13.03;;
19301;SDS011;9785;59.362;12.152;2023-06-19T03:33:44;14.77;;;13.17;;
19301;SDS011;9785;59.362;12.152;2023-06-19T03:36:13;19.80;;;14.00;;
19301;SDS011;9785;59.362;12.152;2023-06-19T03:38:41;17.27;;;13.60;;
19301;SDS011;9785;59.362;12.152;2023-06-19T03:41:11;17.57;;;13.43;;
19301;SDS011;9785;59.362;12.152;2023-06-19T03:43:40;17.70;;;13.33;;
19301;SDS011;9785;59.362;12.152;2023-06-19T03:46:08;17.17;;;13.63;;
19301;SDS011;9785;59.362;12.152;2023-06-19T03:48:37;17.57;;;13.80;;
19301;SDS011;9785;59.362;12.152;2023-06-19T03:51:06;17.73;;;13.53;;
19301;SDS011;9785;59.362;12.152;2023-06-19T03:53:34;17.00;;;13.73;;
19301;SDS011;9785;59.362;12.152;2023-06-19T03:56:03;15.67;;;13.40;;
19301;SDS011;9785;59.362;12.152;2023-06-19T03:58:33;16.37;;;13.53;;
19301;SDS011;9785;59.362;12.152;2023-06-19T04:01:02;16.43;;;13.50;;
19301;SDS011;9785;59.362;12.152;2023-06-19T04:03:32;15.40;;;12.80;;
19301;SDS011;9785;59.362;12.152;2023-06-19T04:06:01;19.23;;;13.43;;
19301;SDS011;9785;59.362;12.152;2023-06-19T04:08:29;15.83;;;13.20;;
19301;SDS011;9785;59.362;12.152;2023-06-19T04:10:58;17.53;;;13.40;;
19301;SDS011;9785;59.362;12.152;2023-06-19T04:13:26;16.73;;;13.63;;
19301;SDS011;9785;59.362;12.152;2023-06-19T04:15:57;15.67;;;13.37;;
19301;SDS011;9785;59.362;12.152;2023-06-19T04:18:25;17.23;;;13.40;;
19301;SDS011;9785;59.362;12.152;2023-06-19T04:20:54;18.60;;;13.43;;
19301;SDS011;9785;59.362;12.152;2023-06-19T04:23:23;14.83;;;13.00;;
19301;SDS011;9785;59.362;12.152;2023-06-19T04:25:52;16.07;;;12.87;;
19301;SDS011;9785;59.362;12.152;2023-06-19T04:28:20;15.27;;;13.50;;
19301;SDS011;9785;59.362;12.152;2023-06-19T04:30:49;16.63;;;12.87;;
19301;SDS011;9785;59.362;12.152;2023-06-19T04:33:19;17.27;;;12.90;;
19301;SDS011;9785;59.362;12.152;2023-06-19T04:35:48;17.07;;;13.40;;
19301;SDS011;9785;59.362;12.152;2023-06-19T04:38:16;17.73;;;12.53;;
19301;SDS011;9785;59.362;12.152;2023-06-19T04:40:45;17.80;;;13.27;;
19301;SDS011;9785;59.362;12.152;2023-06-19T04:43:13;16.17;;;13.13;;
19301;SDS011;9785;59.362;12.152;2023-06-19T04:45:42;14.07;;;12.53;;
19301;SDS011;9785;59.362;12.152;2023-06-19T04:48:11;15.17;;;12.90;;
19301;SDS011;9785;59.362;12.152;2023-06-19T04:50:41;15.67;;;13.23;;
19301;SDS011;9785;59.362;12.152;2023-06-19T04:53:10;15.03;;;12.53;;
19301;SDS011;9785;59.362;12.152;2023-06-19T04:55:39;18.23;;;13.33;;
19301;SDS011;9785;59.362;12.152;2023-06-19T04:58:08;17.30;;;12.97;;
19301;SDS011;9785;59.362;12.152;2023-06-19T05:00:36;13.80;;;12.27;;
19301;SDS011;9785;59.362;12.152;2023-06-19T05:03:05;16.87;;;12.90;;
19301;SDS011;9785;59.362;12.152;2023-06-19T05:05:33;14.83;;;13.00;;
19301;SDS011;9785;59.362;12.152;2023-06-19T05:08:03;16.90;;;13.60;;
19301;SDS011;9785;59.362;12.152;2023-06-19T05:10:32;15.13;;;13.30;;
19301;SDS011;9785;59.362;12.152;2023-06-19T05:13:01;15.50;;;13.83;;
19301;SDS011;9785;59.362;12.152;2023-06-19T05:15:29;17.77;;;13.17;;
19301;SDS011;9785;59.362;12.152;2023-06-19T05:17:58;15.03;;;13.23;;
19301;SDS011;9785;59.362;12.152;2023-06-19T05:20:27;16.97;;;13.40;;
19301;SDS011;9785;59.362;12.152;2023-06-19T05:22:55;17.07;;;13.60;;
19301;SDS011;9785;59.362;12.152;2023-06-19T05:25:25;15.67;;;13.47;;
19301;SDS011;9785;59.362;12.152;2023-06-19T05:27:54;14.37;;;12.37;;
19301;SDS011;9785;59.362;12.152;2023-06-19T05:30:23;18.23;;;13.23;;
19301;SDS011;9785;59.362;12.152;2023-06-19T05:32:52;16.53;;;12.73;;
19301;SDS011;9785;59.362;12.152;2023-06-19T05:35:20;17.33;;;12.73;;
19301;SDS011;9785;59.362;12.152;2023-06-19T05:37:49;17.97;;;13.83;;
19301;SDS011;9785;59.362;12.152;2023-06-19T05:40:18;15.33;;;13.17;;
19301;SDS011;9785;59.362;12.152;2023-06-19T05:42:48;18.17;;;13.73;;
19301;SDS011;9785;59.362;12.152;2023-06-19T05:45:16;16.67;;;13.57;;
19301;SDS011;9785;59.362;12.152;2023-06-19T05:47:45;15.63;;;12.43;;
19301;SDS011;9785;59.362;12.152;2023-06-19T05:50:14;15.37;;;12.87;;
19301;SDS011;9785;59.362;12.152;2023-06-19T05:52:42;15.97;;;13.57;;
19301;SDS011;9785;59.362;12.152;2023-06-19T05:55:11;16.33;;;13.17;;
19301;SDS011;9785;59.362;12.152;2023-06-19T05:57:40;13.90;;;12.40;;
19301;SDS011;9785;59.362;12.152;2023-06-19T06:00:11;14.97;;;12.93;;
19301;SDS011;9785;59.362;12.152;2023-06-19T06:02:40;16.80;;;13.07;;
19301;SDS011;9785;59.362;12.152;2023-06-19T06:05:09;16.00;;;13.57;;
19301;SDS011;9785;59.362;12.152;2023-06-19T06:07:38;18.90;;;13.40;;
19301;SDS011;9785;59.362;12.152;2023-06-19T06:10:07;15.83;;;13.37;;
19301;SDS011;9785;59.362;12.152;2023-06-19T06:12:36;19.67;;;13.90;;
19301;SDS011;9785;59.362;12.152;2023-06-19T06:15:05;15.90;;;13.37;;
19301;SDS011;9785;59.362;12.152;2023-06-19T06:17:35;15.53;;;13.43;;
19301;SDS011;9785;59.362;12.152;2023-06-19T06:20:04;15.50;;;13.73;;
19301;SDS011;9785;59.362;12.152;2023-06-19T06:22:37;15.97;;;13.63;;
19301;SDS011;9785;59.362;12.152;2023-06-19T06:25:06;16.07;;;13.23;;
19301;SDS011;9785;59.362;12.152;2023-06-19T06:27:40;15.67;;;13.97;;
19301;SDS011;9785;59.362;12.152;2023-06-19T06:30:09;18.43;;;13.77;;
19301;SDS011;9785;59.362;12.152;2023-06-19T06:32:40;16.23;;;13.10;;
19301;SDS011;9785;59.362;12.152;2023-06-19T06:35:10;17.23;;;13.90;;
19301;SDS011;9785;59.362;12.152;2023-06-19T06:37:39;14.83;;;13.33;;
19301;SDS011;9785;59.362;12.152;2023-06-19T06:40:08;16.23;;;13.90;;
19301;SDS011;9785;59.362;12.152;2023-06-19T06:42:39;14.67;;;12.90;;
19301;SDS011;9785;59.362;12.152;2023-06-19T06:45:08;15.20;;;13.50;;
19301;SDS011;9785;59.362;12.152;2023-06-19T06:47:37;16.00;;;12.97;;
19301;SDS011;9785;59.362;12.152;2023-06-19T06:50:08;15.77;;;13.20;;
19301;SDS011;9785;59.362;12.152;2023-06-19T06:52:37;14.77;;;13.17;;
19301;SDS011;9785;59.362;12.152;2023-06-19T06:55:06;15.20;;;13.60;;
19301;SDS011;9785;59.362;12.152;2023-06-19T06:57:35;14.53;;;12.90;;
19301;SDS011;9785;59.362;12.152;2023-06-19T07:00:04;15.40;;;13.57;;
19301;SDS011;9785;59.362;12.152;2023-06-19T07:02:37;18.63;;;13.60;;
19301;SDS011;9785;59.362;12.152;2023-06-19T07:05:08;17.90;;;13.50;;
19301;SDS011;9785;59.362;12.152;2023-06-19T07:07:37;15.60;;;13.27;;
19301;SDS011;9785;59.362;12.152;2023-06-19T07:10:06;15.50;;;13.10;;
19301;SDS011;9785;59.362;12.152;2023-06-19T07:12:35;15.50;;;12.97;;
19301;SDS011;9785;59.362;12.152;2023-06-19T07:15:04;14.33;;;12.83;;
19301;SDS011;9785;59.362;12.152;2023-06-19T07:17:33;15.63;;;12.93;;
19301;SDS011;9785;59.362;12.152;2023-06-19T07:20:01;16.97;;;13.27;;
19301;SDS011;9785;59.362;12.152;2023-06-19T07:22:31;16.40;;;13.63;;
19301;SDS011;9785;59.362;12.152;2023-06-19T07:25:00;15.60;;;12.60;;
19301;SDS011;9785;59.362;12.152;2023-06-19T07:27:30;16.90;;;12.63;;
19301;SDS011;9785;59.362;12.152;2023-06-19T07:29:59;15.20;;;13.23;;
19301;SDS011;9785;59.362;12.152;2023-06-19T07:32:27;17.53;;;13.07;;
19301;SDS011;9785;59.362;12.152;2023-06-19T07:34:56;14.53;;;12.87;;
19301;SDS011;9785;59.362;12.152;2023-06-19T07:37:24;16.50;;;12.93;;
19301;SDS011;9785;59.362;12.152;2023-06-19T07:39:54;14.63;;;13.13;;
19301;SDS011;9785;59.362;12.152;2023-06-19T07:42:23;15.13;;;13.17;;
19301;SDS011;9785;59.362;12.152;2023-06-19T07:44:52;14.90;;;12.57;;
19301;SDS011;9785;59.362;12.152;2023-06-19T07:47:20;17.07;;;12.87;;
19301;SDS011;9785;59.362;12.152;2023-06-19T07:49:49;15.63;;;13.10;;
19301;SDS011;9785;59.362;12.152;2023-06-19T07:52:18;15.77;;;12.33;;
19301;SDS011;9785;59.362;12.152;2023-06-19T07:54:53;16.13;;;12.30;;
19301;SDS011;9785;59.362;12.152;2023-06-19T07:57:24;14.43;;;12.93;;
19301;SDS011;9785;59.362;12.152;2023-06-19T07:59:53;14.23;;;12.73;;
19301;SDS011;9785;59.362;12.152;2023-06-19T08:02:22;16.17;;;12.57;;
19301;SDS011;9785;59.362;12.152;2023-06-19T08:04:51;15.23;;;12.30;;
19301;SDS011;9785;59.362;12.152;2023-06-19T08:07:19;14.77;;;12.80;;
19301;SDS011;9785;59.362;12.152;2023-06-19T08:09:48;14.00;;;12.50;;
19301;SDS011;9785;59.362;12.152;2023-06-19T08:12:31;13.93;;;12.37;;
19301;SDS011;9785;59.362;12.152;2023-06-19T08:14:59;13.23;;;11.83;;
19301;SDS011;9785;59.362;12.152;2023-06-19T08:17:28;14.30;;;12.57;;
19301;SDS011;9785;59.362;12.152;2023-06-19T08:19:57;15.00;;;12.40;;
19301;SDS011;9785;59.362;12.152;2023-06-19T08:22:25;13.53;;;12.13;;
19301;SDS011;9785;59.362;12.152;2023-06-19T08:24:54;13.80;;;12.30;;
19301;SDS011;9785;59.362;12.152;2023-06-19T08:27:23;14.07;;;11.80;;
19301;SDS011;9785;59.362;12.152;2023-06-19T08:29:53;15.17;;;12.53;;
19301;SDS011;9785;59.362;12.152;2023-06-19T08:32:22;17.77;;;12.87;;
19301;SDS011;9785;59.362;12.152;2023-06-19T08:34:51;17.60;;;12.80;;
19301;SDS011;9785;59.362;12.152;2023-06-19T08:37:21;14.73;;;13.13;;
19301;SDS011;9785;59.362;12.152;2023-06-19T08:39:49;14.05;;;12.65;;
19301;SDS011;9785;59.362;12.152;2023-06-19T08:42:18;15.03;;;12.80;;
19301;SDS011;9785;59.362;12.152;2023-06-19T08:44:46;15.23;;;13.03;;
19301;SDS011;9785;59.362;12.152;2023-06-19T08:47:16;17.80;;;13.10;;
19301;SDS011;9785;59.362;12.152;2023-06-19T08:49:45;13.57;;;12.23;;
19301;SDS011;9785;59.362;12.152;2023-06-19T08:52:14;17.25;;;12.07;;
19301;SDS011;9785;59.362;12.152;2023-06-19T08:54:42;19.15;;;11.98;;
19301;SDS011;9785;59.362;12.152;2023-06-19T08:57:11;14.35;;;11.60;;
19301;SDS011;9785;59.362;12.152;2023-06-19T08:59:41;13.55;;;12.15;;
19301;SDS011;9785;59.362;12.152;2023-06-19T09:02:17;12.77;;;10.98;;
19301;SDS011;9785;59.362;12.152;2023-06-19T09:04:46;11.73;;;10.63;;
19301;SDS011;9785;59.362;12.152;2023-06-19T09:07:15;12.65;;;11.27;;
19301;SDS011;9785;59.362;12.152;2023-06-19T09:09:44;12.60;;;11.40;;
19301;SDS011;9785;59.362;12.152;2023-06-19T09:12:14;15.57;;;10.70;;
19301;SDS011;9785;59.362;12.152;2023-06-19T09:14:44;11.85;;;10.80;;
19301;SDS011;9785;59.362;12.152;2023-06-19T09:17:18;11.88;;;10.50;;
19301;SDS011;9785;59.362;12.152;2023-06-19T09:19:47;16.10;;;11.00;;
19301;SDS011;9785;59.362;12.152;2023-06-19T09:22:17;12.02;;;10.30;;
19301;SDS011;9785;59.362;12.152;2023-06-19T09:24:46;12.60;;;10.95;;
19301;SDS011;9785;59.362;12.152;2023-06-19T09:27:15;11.75;;;10.55;;
19301;SDS011;9785;59.362;12.152;2023-06-19T09:29:46;12.18;;;10.98;;
19301;SDS011;9785;59.362;12.152;2023-06-19T09:32:19;14.13;;;10.75;;
19301;SDS011;9785;59.362;12.152;2023-06-19T09:34:49;13.55;;;11.27;;
19301;SDS011;9785;59.362;12.152;2023-06-19T09:37:18;13.95;;;10.10;;
19301;SDS011;9785;59.362;12.152;2023-06-19T09:39:50;11.20;;;10.05;;
19301;SDS011;9785;59.362;12.152;2023-06-19T09:42:21;10.20;;;9.20;;
19301;SDS011;9785;59.362;12.152;2023-06-19T09:44:52;10.55;;;9.32;;
19301;SDS011;9785;59.362;12.152;2023-06-19T09:47:25;10.50;;;9.30;;
19301;SDS011;9785;59.362;12.152;2023-06-19T09:49:58;12.93;;;9.68;;
19301;SDS011;9785;59.362;12.152;2023-06-19T09:52:28;12.65;;;9.00;;
19301;SDS011;9785;59.362;12.152;2023-06-19T09:54:57;10.63;;;9.38;;
19301;SDS011;9785;59.362;12.152;2023-06-19T09:57:26;13.10;;;9.55;;
19301;SDS011;9785;59.362;12.152;2023-06-19T09:59:55;9.35;;;8.52;;
19301;SDS011;9785;59.362;12.152;2023-06-19T10:02:28;9.90;;;8.88;;
19301;SDS011;9785;59.362;12.152;2023-06-19T10:04:57;10.38;;;8.85;;
19301;SDS011;9785;59.362;12.152;2023-06-19T10:07:31;9.65;;;8.65;;
19301;SDS011;9785;59.362;12.152;2023-06-19T10:10:01;8.80;;;8.00;;
19301;SDS011;9785;59.362;12.152;2023-06-19T10:12:34;8.57;;;7.78;;
19301;SDS011;9785;59.362;12.152;2023-06-19T10:15:15;8.18;;;7.38;;
19301;SDS011;9785;59.362;12.152;2023-06-19T10:17:46;7.95;;;7.15;;
19301;SDS011;9785;59.362;12.152;2023-06-19T10:20:20;7.47;;;6.80;;
19301;SDS011;9785;59.362;12.152;2023-06-19T10:22:50;8.30;;;7.50;;
19301;SDS011;9785;59.362;12.152;2023-06-19T10:25:20;8.25;;;7.55;;
19301;SDS011;9785;59.362;12.152;2023-06-19T10:27:49;8.20;;;7.40;;
19301;SDS011;9785;59.362;12.152;2023-06-19T10:30:19;7.82;;;7.13;;
19301;SDS011;9785;59.362;12.152;2023-06-19T10:32:50;8.35;;;7.45;;
19301;SDS011;9785;59.362;12.152;2023-06-19T10:35:19;10.00;;;7.70;;
19301;SDS011;9785;59.362;12.152;2023-06-19T10:37:51;8.98;;;8.07;;
19301;SDS011;9785;59.362;12.152;2023-06-19T10:40:20;8.00;;;7.20;;
19301;SDS011;9785;59.362;12.152;2023-06-19T10:42:49;8.75;;;7.93;;
19301;SDS011;9785;59.362;12.152;2023-06-19T10:45:18;8.73;;;7.85;;
19301;SDS011;9785;59.362;12.152;2023-06-19T10:47:47;8.77;;;7.93;;
19301;SDS011;9785;59.362;12.152;2023-06-19T10:50:17;9.18;;;8.30;;
19301;SDS011;9785;59.362;12.152;2023-06-19T10:52:46;8.75;;;7.78;;
19301;SDS011;9785;59.362;12.152;2023-06-19T10:55:15;9.45;;;8.55;;
19301;SDS011;9785;59.362;12.152;2023-06-19T10:57:44;9.32;;;8.27;;
19301;SDS011;9785;59.362;12.152;2023-06-19T11:00:22;10.02;;;9.10;;
19301;SDS011;9785;59.362;12.152;2023-06-19T11:02:51;10.30;;;9.30;;
19301;SDS011;9785;59.362;12.152;2023-06-19T11:05:21;10.02;;;9.00;;
19301;SDS011;9785;59.362;12.152;2023-06-19T11:07:51;10.20;;;9.18;;
19301;SDS011;9785;59.362;12.152;2023-06-19T11:10:20;9.98;;;8.98;;
19301;SDS011;9785;59.362;12.152;2023-06-19T11:12:50;10.32;;;9.15;;
19301;SDS011;9785;59.362;12.152;2023-06-19T11:15:27;13.15;;;10.13;;
19301;SDS011;9785;59.362;12.152;2023-06-19T11:17:57;11.45;;;10.35;;
19301;SDS011;9785;59.362;12.152;2023-06-19T11:20:27;12.27;;;10.50;;
19301;SDS011;9785;59.362;12.152;2023-06-19T11:22:57;11.48;;;10.25;;
19301;SDS011;9785;59.362;12.152;2023-06-19T11:25:34;12.27;;;10.30;;
19301;SDS011;9785;59.362;12.152;2023-06-19T11:28:03;11.80;;;10.60;;
19301;SDS011;9785;59.362;12.152;2023-06-19T11:30:32;10.90;;;9.85;;
19301;SDS011;9785;59.362;12.152;2023-06-19T11:33:02;13.82;;;10.07;;
19301;SDS011;9785;59.362;12.152;2023-06-19T11:35:35;11.32;;;10.07;;
19301;SDS011;9785;59.362;12.152;2023-06-19T11:38:05;11.23;;;9.82;;
19301;SDS011;9785;59.362;12.152;2023-06-19T11:40:40;11.05;;;9.95;;
19301;SDS011;9785;59.362;12.152;2023-06-19T11:43:09;13.82;;;9.98;;
19301;SDS011;9785;59.362;12.152;2023-06-19T11:45:44;11.07;;;9.98;;
19301;SDS011;9785;59.362;12.152;2023-06-19T11:48:14;12.30;;;10.32;;
19301;SDS011;9785;59.362;12.152;2023-06-19T11:50:44;11.68;;;10.48;;
19301;SDS011;9785;59.362;12.152;2023-06-19T11:53:12;11.35;;;10.23;;
19301;SDS011;9785;59.362;12.152;2023-06-19T11:55:41;11.20;;;10.20;;
19301;SDS011;9785;59.362;12.152;2023-06-19T11:58:10;11.57;;;10.40;;
19301;SDS011;9785;59.362;12.152;2023-06-19T12:00:38;12.00;;;10.43;;
19301;SDS011;9785;59.362;12.152;2023-06-19T12:03:08;11.57;;;10.00;;
19301;SDS011;9785;59.362;12.152;2023-06-19T12:05:37;11.77;;;10.23;;
19301;SDS011;9785;59.362;12.152;2023-06-19T12:08:07;11.57;;;10.48;;
19301;SDS011;9785;59.362;12.152;2023-06-19T12:10:35;12.00;;;10.73;;
19301;SDS011;9785;59.362;12.152;2023-06-19T12:13:04;12.25;;;10.98;;
19301;SDS011;9785;59.362;12.152;2023-06-19T12:15:33;12.20;;;10.98;;
19301;SDS011;9785;59.362;12.152;2023-06-19T12:18:03;13.55;;;10.60;;
19301;SDS011;9785;59.362;12.152;2023-06-19T12:20:34;11.88;;;10.68;;
19301;SDS011;9785;59.362;12.152;2023-06-19T12:23:02;11.40;;;10.30;;
19301;SDS011;9785;59.362;12.152;2023-06-19T12:25:32;11.43;;;10.27;;
19301;SDS011;9785;59.362;12.152;2023-06-19T12:28:01;11.35;;;10.30;;
19301;SDS011;9785;59.362;12.152;2023-06-19T12:30:34;13.30;;;10.43;;
19301;SDS011;9785;59.362;12.152;2023-06-19T12:33:03;11.93;;;10.73;;
19301;SDS011;9785;59.362;12.152;2023-06-19T12:35:32;12.40;;;10.48;;
19301;SDS011;9785;59.362;12.152;2023-06-19T12:38:01;13.13;;;10.40;;
19301;SDS011;9785;59.362;12.152;2023-06-19T12:40:34;10.77;;;9.77;;
19301;SDS011;9785;59.362;12.152;2023-06-19T12:43:02;10.40;;;9.38;;
19301;SDS011;9785;59.362;12.152;2023-06-19T12:45:31;10.48;;;9.40;;
19301;SDS011;9785;59.362;12.152;2023-06-19T12:48:00;12.15;;;9.85;;
19301;SDS011;9785;59.362;12.152;2023-06-19T12:50:29;11.70;;;9.75;;
19301;SDS011;9785;59.362;12.152;2023-06-19T12:52:58;9.98;;;8.93;;
19301;SDS011;9785;59.362;12.152;2023-06-19T12:55:26;10.55;;;9.43;;
19301;SDS011;9785;59.362;12.152;2023-06-19T12:57:57;10.05;;;9.13;;
19301;SDS011;9785;59.362;12.152;2023-06-19T13:00:25;9.70;;;8.90;;
19301;SDS011;9785;59.362;12.152;2023-06-19T13:02:54;10.13;;;8.93;;
19301;SDS011;9785;59.362;12.152;2023-06-19T13:05:23;10.07;;;9.07;;
19301;SDS011;9785;59.362;12.152;2023-06-19T13:07:51;10.05;;;9.15;;
19301;SDS011;9785;59.362;12.152;2023-06-19T13:10:20;9.75;;;8.75;;
19301;SDS011;9785;59.362;12.152;2023-06-19T13:12:49;9.93;;;9.02;;
19301;SDS011;9785;59.362;12.152;2023-06-19T13:15:19;9.95;;;9.05;;
19301;SDS011;9785;59.362;12.152;2023-06-19T13:17:47;10.43;;;9.43;;
19301;SDS011;9785;59.362;12.152;2023-06-19T13:20:16;11.00;;;10.00;;
19301;SDS011;9785;59.362;12.152;2023-06-19T13:22:45;11.27;;;10.18;;
19301;SDS011;9785;59.362;12.152;2023-06-19T13:25:13;11.35;;;10.25;;
19301;SDS011;9785;59.362;12.152;2023-06-19T13:27:42;12.00;;;9.38;;
19301;SDS011;9785;59.362;12.152;2023-06-19T13:30:11;10.85;;;9.82;;
19301;SDS011;9785;59.362;12.152;2023-06-19T13:32:42;11.20;;;9.93;;
19301;SDS011;9785;59.362;12.152;2023-06-19T13:35:10;11.07;;;10.05;;
19301;SDS011;9785;59.362;12.152;2023-06-19T13:37:39;11.32;;;10.20;;
19301;SDS011;9785;59.362;12.152;2023-06-19T13:40:08;11.73;;;10.73;;
19301;SDS011;9785;59.362;12.152;2023-06-19T13:42:37;11.75;;;9.70;;
19301;SDS011;9785;59.362;12.152;2023-06-19T13:45:06;11.10;;;10.00;;
19301;SDS011;9785;59.362;12.152;2023-06-19T13:47:35;10.80;;;9.85;;
19301;SDS011;9785;59.362;12.152;2023-06-19T13:50:06;10.77;;;9.77;;
19301;SDS011;9785;59.362;12.152;2023-06-19T13:52:35;10.93;;;9.82;;
19301;SDS011;9785;59.362;12.152;2023-06-19T13:55:04;10.73;;;9.73;;
19301;SDS011;9785;59.362;12.152;2023-06-19T13:57:33;13.43;;;9.43;;
19301;SDS011;9785;59.362;12.152;2023-06-19T14:00:04;10.57;;;9.05;;
19301;SDS011;9785;59.362;12.152;2023-06-19T14:02:37;11.07;;;9.63;;
19301;SDS011;9785;59.362;12.152;2023-06-19T14:05:07;9.60;;;8.60;;
19301;SDS011;9785;59.362;12.152;2023-06-19T14:07:36;9.88;;;8.90;;
19301;SDS011;9785;59.362;12.152;2023-06-19T14:10:05;10.13;;;8.45;;
19301;SDS011;9785;59.362;12.152;2023-06-19T14:12:34;11.10;;;9.10;;
19301;SDS011;9785;59.362;12.152;2023-06-19T14:15:05;9.18;;;8.35;;
19301;SDS011;9785;59.362;12.152;2023-06-19T14:17:36;8.95;;;8.05;;
19301;SDS011;9785;59.362;12.152;2023-06-19T14:20:09;8.80;;;7.95;;
19301;SDS011;9785;59.362;12.152;2023-06-19T14:22:38;9.20;;;8.40;;
19301;SDS011;9785;59.362;12.152;2023-06-19T14:25:07;8.85;;;8.05;;
19301;SDS011;9785;59.362;12.152;2023-06-19T14:27:36;11.02;;;7.53;;
19301;SDS011;9785;59.362;12.152;2023-06-19T14:30:05;8.82;;;7.68;;
19301;SDS011;9785;59.362;12.152;2023-06-19T14:32:35;8.38;;;7.57;;
19301;SDS011;9785;59.362;12.152;2023-06-19T14:35:04;8.73;;;7.35;;
19301;SDS011;9785;59.362;12.152;2023-06-19T14:37:34;7.85;;;7.03;;
19301;SDS011;9785;59.362;12.152;2023-06-19T14:40:04;7.68;;;6.97;;
19301;SDS011;9785;59.362;12.152;2023-06-19T14:42:32;8.13;;;7.15;;
19301;SDS011;9785;59.362;12.152;2023-06-19T14:45:01;7.15;;;6.55;;